sensor_id;sensor_type;location;lat;lon;timestamp;P1;durP1;ratioP1;P2;durP2;ratioP2
76786;SDS011;65739;51.482;5.702;2023-05-14T00:08:22;9.98;;;8.93;;
76786;SDS011;65739;51.482;5.702;2023-05-14T00:11:10;13.27;;;9.32;;
76786;SDS011;65739;51.482;5.702;2023-05-14T00:14:04;10.50;;;8.88;;
76786;SDS011;65739;51.482;5.702;2023-05-14T00:17:06;11.15;;;9.55;;
76786;SDS011;65739;51.482;5.702;2023-05-14T00:20:05;12.60;;;9.45;;
76786;SDS011;65739;51.482;5.702;2023-05-14T00:22:51;14.07;;;9.23;;
76786;SDS011;65739;51.482;5.702;2023-05-14T00:25:56;12.32;;;9.45;;
76786;SDS011;65739;51.482;5.702;2023-05-14T00:28:51;11.90;;;9.60;;
76786;SDS011;65739;51.482;5.702;2023-05-14T00:31:37;12.77;;;9.23;;
76786;SDS011;65739;51.482;5.702;2023-05-14T00:34:31;16.55;;;10.65;;
76786;SDS011;65739;51.482;5.702;2023-05-14T00:37:27;12.18;;;9.68;;
76786;SDS011;65739;51.482;5.702;2023-05-14T00:40:15;14.07;;;9.88;;
76786;SDS011;65739;51.482;5.702;2023-05-14T00:43:23;12.82;;;10.02;;
76786;SDS011;65739;51.482;5.702;2023-05-14T00:49:28;16.90;;;10.18;;
76786;SDS011;65739;51.482;5.702;2023-05-14T00:52:11;12.50;;;10.45;;
76786;SDS011;65739;51.482;5.702;2023-05-14T00:54:56;13.65;;;10.25;;
76786;SDS011;65739;51.482;5.702;2023-05-14T00:57:57;15.30;;;10.65;;
76786;SDS011;65739;51.482;5.702;2023-05-14T01:00:45;13.40;;;9.88;;
76786;SDS011;65739;51.482;5.702;2023-05-14T01:03:33;14.15;;;11.05;;
76786;SDS011;65739;51.482;5.702;2023-05-14T01:09:45;17.00;;;11.15;;
76786;SDS011;65739;51.482;5.702;2023-05-14T01:15:38;12.63;;;11.32;;
76786;SDS011;65739;51.482;5.702;2023-05-14T01:18:29;14.02;;;11.50;;
76786;SDS011;65739;51.482;5.702;2023-05-14T01:30:55;15.00;;;11.10;;
76786;SDS011;65739;51.482;5.702;2023-05-14T01:33:43;17.30;;;11.93;;
76786;SDS011;65739;51.482;5.702;2023-05-14T01:36:22;15.52;;;12.55;;
76786;SDS011;65739;51.482;5.702;2023-05-14T01:39:00;17.08;;;12.25;;
76786;SDS011;65739;51.482;5.702;2023-05-14T01:41:42;16.50;;;13.25;;
76786;SDS011;65739;51.482;5.702;2023-05-14T01:44:43;14.65;;;12.07;;
76786;SDS011;65739;51.482;5.702;2023-05-14T01:47:39;20.83;;;12.80;;
76786;SDS011;65739;51.482;5.702;2023-05-14T01:50:17;19.33;;;12.70;;
76786;SDS011;65739;51.482;5.702;2023-05-14T01:59:25;18.73;;;12.98;;
76786;SDS011;65739;51.482;5.702;2023-05-14T02:02:15;20.00;;;13.15;;
76786;SDS011;65739;51.482;5.702;2023-05-14T02:05:14;16.23;;;13.45;;
76786;SDS011;65739;51.482;5.702;2023-05-14T02:07:52;17.30;;;13.25;;
76786;SDS011;65739;51.482;5.702;2023-05-14T02:10:59;16.73;;;14.32;;
76786;SDS011;65739;51.482;5.702;2023-05-14T02:13:52;23.33;;;14.45;;
76786;SDS011;65739;51.482;5.702;2023-05-14T02:16:57;16.17;;;13.65;;
76786;SDS011;65739;51.482;5.702;2023-05-14T02:19:45;23.13;;;14.00;;
76786;SDS011;65739;51.482;5.702;2023-05-14T02:22:21;19.15;;;13.80;;
76786;SDS011;65739;51.482;5.702;2023-05-14T02:25:20;19.65;;;14.80;;
76786;SDS011;65739;51.482;5.702;2023-05-14T02:28:12;16.63;;;14.02;;
76786;SDS011;65739;51.482;5.702;2023-05-14T02:30:55;19.75;;;14.68;;
76786;SDS011;65739;51.482;5.702;2023-05-14T02:33:26;20.77;;;14.80;;
76786;SDS011;65739;51.482;5.702;2023-05-14T02:36:12;18.58;;;14.25;;
76786;SDS011;65739;51.482;5.702;2023-05-14T02:39:26;16.70;;;13.65;;
76786;SDS011;65739;51.482;5.702;2023-05-14T02:42:36;17.42;;;14.50;;
76786;SDS011;65739;51.482;5.702;2023-05-14T02:48:22;16.42;;;14.23;;
76786;SDS011;65739;51.482;5.702;2023-05-14T02:50:55;20.45;;;15.70;;
76786;SDS011;65739;51.482;5.702;2023-05-14T02:59:22;16.63;;;13.85;;
76786;SDS011;65739;51.482;5.702;2023-05-14T03:02:01;16.10;;;13.45;;
76786;SDS011;65739;51.482;5.702;2023-05-14T03:05:07;19.05;;;14.10;;
76786;SDS011;65739;51.482;5.702;2023-05-14T03:07:51;35.63;;;15.52;;
76786;SDS011;65739;51.482;5.702;2023-05-14T03:11:00;17.80;;;14.85;;
76786;SDS011;65739;51.482;5.702;2023-05-14T03:13:59;20.48;;;14.85;;
76786;SDS011;65739;51.482;5.702;2023-05-14T03:23:07;22.98;;;16.92;;
76786;SDS011;65739;51.482;5.702;2023-05-14T03:26:03;18.40;;;15.95;;
76786;SDS011;65739;51.482;5.702;2023-05-14T03:28:42;20.48;;;16.30;;
76786;SDS011;65739;51.482;5.702;2023-05-14T03:31:31;21.05;;;16.20;;
76786;SDS011;65739;51.482;5.702;2023-05-14T03:33:57;23.05;;;17.88;;
76786;SDS011;65739;51.482;5.702;2023-05-14T03:36:22;27.00;;;18.63;;
76786;SDS011;65739;51.482;5.702;2023-05-14T03:38:50;22.17;;;17.50;;
76786;SDS011;65739;51.482;5.702;2023-05-14T03:41:35;24.75;;;19.20;;
76786;SDS011;65739;51.482;5.702;2023-05-14T03:44:32;33.70;;;19.27;;
76786;SDS011;65739;51.482;5.702;2023-05-14T03:47:41;29.90;;;19.15;;
76786;SDS011;65739;51.482;5.702;2023-05-14T03:50:47;21.50;;;18.15;;
76786;SDS011;65739;51.482;5.702;2023-05-14T04:00:17;27.52;;;20.02;;
76786;SDS011;65739;51.482;5.702;2023-05-14T04:02:54;26.20;;;19.88;;
76786;SDS011;65739;51.482;5.702;2023-05-14T04:12:24;28.55;;;20.65;;
76786;SDS011;65739;51.482;5.702;2023-05-14T04:18:15;26.83;;;20.87;;
76786;SDS011;65739;51.482;5.702;2023-05-14T04:26:54;30.50;;;22.02;;
76786;SDS011;65739;51.482;5.702;2023-05-14T04:29:48;29.02;;;21.23;;
76786;SDS011;65739;51.482;5.702;2023-05-14T04:32:37;28.60;;;21.25;;
76786;SDS011;65739;51.482;5.702;2023-05-14T04:35:10;31.33;;;21.83;;
76786;SDS011;65739;51.482;5.702;2023-05-14T04:41:13;26.67;;;21.45;;
76786;SDS011;65739;51.482;5.702;2023-05-14T04:44:17;26.35;;;20.33;;
76786;SDS011;65739;51.482;5.702;2023-05-14T04:47:07;28.52;;;20.67;;
76786;SDS011;65739;51.482;5.702;2023-05-14T04:49:58;26.27;;;20.05;;
76786;SDS011;65739;51.482;5.702;2023-05-14T04:52:43;27.60;;;20.70;;
76786;SDS011;65739;51.482;5.702;2023-05-14T04:55:32;27.98;;;21.27;;
76786;SDS011;65739;51.482;5.702;2023-05-14T05:00:59;30.00;;;21.65;;
76786;SDS011;65739;51.482;5.702;2023-05-14T05:03:55;27.10;;;20.55;;
76786;SDS011;65739;51.482;5.702;2023-05-14T05:07:00;29.85;;;20.60;;
76786;SDS011;65739;51.482;5.702;2023-05-14T05:09:56;25.17;;;20.35;;
76786;SDS011;65739;51.482;5.702;2023-05-14T05:15:44;26.23;;;19.35;;
76786;SDS011;65739;51.482;5.702;2023-05-14T05:24:32;25.60;;;18.05;;
76786;SDS011;65739;51.482;5.702;2023-05-14T05:27:17;22.58;;;18.40;;
76786;SDS011;65739;51.482;5.702;2023-05-14T05:30:37;26.65;;;18.42;;
76786;SDS011;65739;51.482;5.702;2023-05-14T05:33:16;23.88;;;17.65;;
76786;SDS011;65739;51.482;5.702;2023-05-14T05:35:44;23.58;;;18.90;;
76786;SDS011;65739;51.482;5.702;2023-05-14T05:38:20;24.13;;;18.05;;
76786;SDS011;65739;51.482;5.702;2023-05-14T05:40:48;20.92;;;17.95;;
76786;SDS011;65739;51.482;5.702;2023-05-14T05:43:27;21.80;;;16.95;;
76786;SDS011;65739;51.482;5.702;2023-05-14T05:46:07;24.13;;;18.20;;
76786;SDS011;65739;51.482;5.702;2023-05-14T05:49:03;24.25;;;16.30;;
76786;SDS011;65739;51.482;5.702;2023-05-14T05:51:30;22.25;;;16.38;;
76786;SDS011;65739;51.482;5.702;2023-05-14T05:54:09;23.00;;;15.77;;
76786;SDS011;65739;51.482;5.702;2023-05-14T05:56:52;20.27;;;15.52;;
76786;SDS011;65739;51.482;5.702;2023-05-14T05:59:28;25.00;;;16.23;;
76786;SDS011;65739;51.482;5.702;2023-05-14T06:02:50;20.20;;;16.73;;
76786;SDS011;65739;51.482;5.702;2023-05-14T06:05:50;20.25;;;15.75;;
76786;SDS011;65739;51.482;5.702;2023-05-14T06:08:47;20.85;;;15.20;;
76786;SDS011;65739;51.482;5.702;2023-05-14T06:11:33;21.52;;;15.23;;
76786;SDS011;65739;51.482;5.702;2023-05-14T06:14:29;25.15;;;15.25;;
76786;SDS011;65739;51.482;5.702;2023-05-14T06:17:15;22.38;;;14.65;;
76786;SDS011;65739;51.482;5.702;2023-05-14T06:19:43;24.08;;;15.27;;
76786;SDS011;65739;51.482;5.702;2023-05-14T06:22:10;18.38;;;15.50;;
76786;SDS011;65739;51.482;5.702;2023-05-14T06:24:59;18.80;;;16.35;;
76786;SDS011;65739;51.482;5.702;2023-05-14T06:28:12;19.70;;;15.07;;
76786;SDS011;65739;51.482;5.702;2023-05-14T06:31:07;20.15;;;15.55;;
76786;SDS011;65739;51.482;5.702;2023-05-14T06:33:33;23.52;;;15.20;;
76786;SDS011;65739;51.482;5.702;2023-05-14T06:42:47;18.25;;;15.07;;
76786;SDS011;65739;51.482;5.702;2023-05-14T06:48:56;23.58;;;16.70;;
76786;SDS011;65739;51.482;5.702;2023-05-14T06:55:30;22.33;;;16.25;;
76786;SDS011;65739;51.482;5.702;2023-05-14T06:58:25;18.80;;;15.50;;
76786;SDS011;65739;51.482;5.702;2023-05-14T07:04:32;26.73;;;17.25;;
76786;SDS011;65739;51.482;5.702;2023-05-14T07:07:23;22.30;;;16.27;;
76786;SDS011;65739;51.482;5.702;2023-05-14T07:13:01;23.92;;;15.73;;
76786;SDS011;65739;51.482;5.702;2023-05-14T07:16:11;19.60;;;15.45;;
76786;SDS011;65739;51.482;5.702;2023-05-14T07:19:17;22.63;;;14.98;;
76786;SDS011;65739;51.482;5.702;2023-05-14T07:25:18;20.65;;;16.80;;
76786;SDS011;65739;51.482;5.702;2023-05-14T07:28:00;21.88;;;15.88;;
76786;SDS011;65739;51.482;5.702;2023-05-14T07:31:12;21.33;;;15.43;;
76786;SDS011;65739;51.482;5.702;2023-05-14T07:33:54;23.73;;;16.88;;
76786;SDS011;65739;51.482;5.702;2023-05-14T07:40:15;20.45;;;15.60;;
76786;SDS011;65739;51.482;5.702;2023-05-14T07:43:12;22.55;;;16.33;;
76786;SDS011;65739;51.482;5.702;2023-05-14T07:45:57;21.98;;;16.27;;
76786;SDS011;65739;51.482;5.702;2023-05-14T07:48:52;19.77;;;14.98;;
76786;SDS011;65739;51.482;5.702;2023-05-14T07:55:25;25.05;;;15.35;;
76786;SDS011;65739;51.482;5.702;2023-05-14T07:58:14;22.65;;;15.00;;
76786;SDS011;65739;51.482;5.702;2023-05-14T08:04:49;19.88;;;14.88;;
76786;SDS011;65739;51.482;5.702;2023-05-14T08:11:11;19.23;;;13.93;;
76786;SDS011;65739;51.482;5.702;2023-05-14T08:17:13;16.85;;;12.90;;
76786;SDS011;65739;51.482;5.702;2023-05-14T08:20:17;16.65;;;13.45;;
76786;SDS011;65739;51.482;5.702;2023-05-14T08:23:23;20.17;;;13.73;;
76786;SDS011;65739;51.482;5.702;2023-05-14T08:26:09;21.75;;;14.70;;
76786;SDS011;65739;51.482;5.702;2023-05-14T08:28:50;20.77;;;14.90;;
76786;SDS011;65739;51.482;5.702;2023-05-14T08:31:37;18.30;;;15.43;;
76786;SDS011;65739;51.482;5.702;2023-05-14T08:34:16;19.15;;;14.65;;
76786;SDS011;65739;51.482;5.702;2023-05-14T08:36:42;20.00;;;15.23;;
76786;SDS011;65739;51.482;5.702;2023-05-14T08:39:07;16.63;;;14.23;;
76786;SDS011;65739;51.482;5.702;2023-05-14T08:41:33;17.35;;;14.13;;
76786;SDS011;65739;51.482;5.702;2023-05-14T08:44:06;21.27;;;14.15;;
76786;SDS011;65739;51.482;5.702;2023-05-14T08:46:37;16.63;;;13.65;;
76786;SDS011;65739;51.482;5.702;2023-05-14T08:49:07;19.83;;;14.15;;
76786;SDS011;65739;51.482;5.702;2023-05-14T08:51:35;18.87;;;14.60;;
76786;SDS011;65739;51.482;5.702;2023-05-14T08:54:01;18.33;;;14.23;;
76786;SDS011;65739;51.482;5.702;2023-05-14T08:56:27;20.05;;;13.48;;
76786;SDS011;65739;51.482;5.702;2023-05-14T08:58:56;21.38;;;13.60;;
76786;SDS011;65739;51.482;5.702;2023-05-14T09:01:27;14.70;;;12.57;;
76786;SDS011;65739;51.482;5.702;2023-05-14T09:07:23;15.73;;;12.23;;
76786;SDS011;65739;51.482;5.702;2023-05-14T09:13:45;16.00;;;12.60;;
76786;SDS011;65739;51.482;5.702;2023-05-14T09:16:31;17.45;;;11.80;;
76786;SDS011;65739;51.482;5.702;2023-05-14T09:19:45;18.83;;;11.93;;
76786;SDS011;65739;51.482;5.702;2023-05-14T09:22:21;19.88;;;12.85;;
76786;SDS011;65739;51.482;5.702;2023-05-14T09:25:03;17.10;;;12.77;;
76786;SDS011;65739;51.482;5.702;2023-05-14T09:30:55;16.45;;;12.82;;
76786;SDS011;65739;51.482;5.702;2023-05-14T09:33:25;14.38;;;12.55;;
76786;SDS011;65739;51.482;5.702;2023-05-14T09:35:55;15.35;;;13.10;;
76786;SDS011;65739;51.482;5.702;2023-05-14T09:38:29;17.92;;;12.65;;
76786;SDS011;65739;51.482;5.702;2023-05-14T09:40:55;19.20;;;12.50;;
76786;SDS011;65739;51.482;5.702;2023-05-14T09:43:21;17.65;;;12.15;;
76786;SDS011;65739;51.482;5.702;2023-05-14T09:45:47;15.63;;;13.48;;
76786;SDS011;65739;51.482;5.702;2023-05-14T09:48:12;14.07;;;12.35;;
76786;SDS011;65739;51.482;5.702;2023-05-14T09:50:41;16.52;;;12.80;;
76786;SDS011;65739;51.482;5.702;2023-05-14T09:53:15;14.90;;;11.63;;
76786;SDS011;65739;51.482;5.702;2023-05-14T09:55:41;17.33;;;12.38;;
76786;SDS011;65739;51.482;5.702;2023-05-14T09:58:07;13.75;;;10.77;;
76786;SDS011;65739;51.482;5.702;2023-05-14T10:00:32;14.10;;;11.02;;
76786;SDS011;65739;51.482;5.702;2023-05-14T10:02:59;13.60;;;10.82;;
76786;SDS011;65739;51.482;5.702;2023-05-14T10:05:30;13.82;;;10.75;;
76786;SDS011;65739;51.482;5.702;2023-05-14T10:08:05;13.50;;;10.63;;
76786;SDS011;65739;51.482;5.702;2023-05-14T10:10:38;13.48;;;10.80;;
76786;SDS011;65739;51.482;5.702;2023-05-14T10:13:12;11.80;;;10.20;;
76786;SDS011;65739;51.482;5.702;2023-05-14T10:18:09;14.13;;;9.43;;
76786;SDS011;65739;51.482;5.702;2023-05-14T10:20:39;11.57;;;8.55;;
76786;SDS011;65739;51.482;5.702;2023-05-14T10:23:08;12.60;;;9.35;;
76786;SDS011;65739;51.482;5.702;2023-05-14T10:25:34;14.27;;;10.15;;
76786;SDS011;65739;51.482;5.702;2023-05-14T10:28:01;13.45;;;10.45;;
76786;SDS011;65739;51.482;5.702;2023-05-14T10:30:27;13.73;;;10.30;;
76786;SDS011;65739;51.482;5.702;2023-05-14T10:33:05;14.75;;;10.73;;
76786;SDS011;65739;51.482;5.702;2023-05-14T10:35:56;14.90;;;10.18;;
76786;SDS011;65739;51.482;5.702;2023-05-14T10:38:55;13.95;;;9.77;;
76786;SDS011;65739;51.482;5.702;2023-05-14T10:42:02;10.30;;;9.27;;
76786;SDS011;65739;51.482;5.702;2023-05-14T10:48:06;12.35;;;9.23;;
76786;SDS011;65739;51.482;5.702;2023-05-14T10:50:55;12.13;;;9.50;;
76786;SDS011;65739;51.482;5.702;2023-05-14T10:53:35;11.27;;;9.02;;
76786;SDS011;65739;51.482;5.702;2023-05-14T11:00:00;12.13;;;9.35;;
76786;SDS011;65739;51.482;5.702;2023-05-14T11:02:59;11.93;;;8.80;;
76786;SDS011;65739;51.482;5.702;2023-05-14T11:05:29;10.50;;;8.85;;
76786;SDS011;65739;51.482;5.702;2023-05-14T11:08:35;11.40;;;7.88;;
76786;SDS011;65739;51.482;5.702;2023-05-14T11:11:19;9.63;;;7.45;;
76786;SDS011;65739;51.482;5.702;2023-05-14T11:14:32;17.75;;;7.78;;
76786;SDS011;65739;51.482;5.702;2023-05-14T11:21:04;11.40;;;7.68;;
76786;SDS011;65739;51.482;5.702;2023-05-14T11:23:51;9.77;;;6.75;;
76786;SDS011;65739;51.482;5.702;2023-05-14T11:26:40;7.93;;;5.65;;
76786;SDS011;65739;51.482;5.702;2023-05-14T11:32:40;6.63;;;4.38;;
76786;SDS011;65739;51.482;5.702;2023-05-14T11:35:16;7.97;;;4.72;;
76786;SDS011;65739;51.482;5.702;2023-05-14T11:37:42;10.50;;;4.95;;
76786;SDS011;65739;51.482;5.702;2023-05-14T11:40:13;7.78;;;4.03;;
76786;SDS011;65739;51.482;5.702;2023-05-14T11:42:42;9.73;;;4.73;;
76786;SDS011;65739;51.482;5.702;2023-05-14T11:45:12;8.40;;;4.82;;
76786;SDS011;65739;51.482;5.702;2023-05-14T11:47:48;6.07;;;4.80;;
76786;SDS011;65739;51.482;5.702;2023-05-14T11:50:13;6.38;;;4.63;;
76786;SDS011;65739;51.482;5.702;2023-05-14T11:52:40;7.05;;;4.15;;
76786;SDS011;65739;51.482;5.702;2023-05-14T11:55:10;7.13;;;4.50;;
76786;SDS011;65739;51.482;5.702;2023-05-14T12:00:02;6.32;;;3.92;;
76786;SDS011;65739;51.482;5.702;2023-05-14T12:02:30;5.68;;;4.20;;
76786;SDS011;65739;51.482;5.702;2023-05-14T12:04:58;4.82;;;4.38;;
76786;SDS011;65739;51.482;5.702;2023-05-14T12:07:27;10.07;;;4.28;;
76786;SDS011;65739;51.482;5.702;2023-05-14T12:09:59;11.75;;;4.28;;
76786;SDS011;65739;51.482;5.702;2023-05-14T12:12:32;4.97;;;3.80;;
76786;SDS011;65739;51.482;5.702;2023-05-14T12:15:00;4.88;;;3.55;;
76786;SDS011;65739;51.482;5.702;2023-05-14T12:17:25;3.70;;;3.13;;
76786;SDS011;65739;51.482;5.702;2023-05-14T12:19:53;5.88;;;3.92;;
76786;SDS011;65739;51.482;5.702;2023-05-14T12:22:24;8.88;;;4.10;;
76786;SDS011;65739;51.482;5.702;2023-05-14T12:24:52;6.57;;;3.83;;
76786;SDS011;65739;51.482;5.702;2023-05-14T12:30:36;6.70;;;2.83;;
76786;SDS011;65739;51.482;5.702;2023-05-14T12:33:06;4.28;;;3.83;;
76786;SDS011;65739;51.482;5.702;2023-05-14T12:35:32;4.13;;;3.42;;
76786;SDS011;65739;51.482;5.702;2023-05-14T12:37:58;4.85;;;3.80;;
76786;SDS011;65739;51.482;5.702;2023-05-14T12:40:25;6.38;;;3.97;;
76786;SDS011;65739;51.482;5.702;2023-05-14T12:42:51;6.03;;;3.60;;
76786;SDS011;65739;51.482;5.702;2023-05-14T12:45:16;4.72;;;3.70;;
76786;SDS011;65739;51.482;5.702;2023-05-14T12:47:42;6.53;;;3.50;;
76786;SDS011;65739;51.482;5.702;2023-05-14T12:50:09;4.38;;;2.60;;
76786;SDS011;65739;51.482;5.702;2023-05-14T12:52:38;10.15;;;3.88;;
76786;SDS011;65739;51.482;5.702;2023-05-14T12:55:04;4.25;;;3.08;;
76786;SDS011;65739;51.482;5.702;2023-05-14T12:57:32;6.32;;;3.08;;
76786;SDS011;65739;51.482;5.702;2023-05-14T12:59:59;5.68;;;3.10;;
76786;SDS011;65739;51.482;5.702;2023-05-14T13:02:27;4.65;;;3.30;;
76786;SDS011;65739;51.482;5.702;2023-05-14T13:04:53;5.45;;;3.20;;
76786;SDS011;65739;51.482;5.702;2023-05-14T13:07:26;4.75;;;3.00;;
76786;SDS011;65739;51.482;5.702;2023-05-14T13:09:55;8.02;;;3.10;;
76786;SDS011;65739;51.482;5.702;2023-05-14T13:12:23;4.63;;;3.15;;
76786;SDS011;65739;51.482;5.702;2023-05-14T13:14:58;3.10;;;2.80;;
76786;SDS011;65739;51.482;5.702;2023-05-14T13:17:46;4.22;;;3.05;;
76786;SDS011;65739;51.482;5.702;2023-05-14T13:20:40;6.35;;;3.40;;
76786;SDS011;65739;51.482;5.702;2023-05-14T13:23:41;3.78;;;2.90;;
76786;SDS011;65739;51.482;5.702;2023-05-14T13:26:17;7.55;;;3.25;;
76786;SDS011;65739;51.482;5.702;2023-05-14T13:29:40;6.00;;;3.58;;
76786;SDS011;65739;51.482;5.702;2023-05-14T13:32:18;5.00;;;2.67;;
76786;SDS011;65739;51.482;5.702;2023-05-14T13:34:46;4.40;;;2.70;;
76786;SDS011;65739;51.482;5.702;2023-05-14T13:37:16;5.50;;;2.85;;
76786;SDS011;65739;51.482;5.702;2023-05-14T13:40:07;3.95;;;2.80;;
76786;SDS011;65739;51.482;5.702;2023-05-14T13:43:00;7.38;;;2.92;;
76786;SDS011;65739;51.482;5.702;2023-05-14T13:49:13;4.85;;;3.03;;
76786;SDS011;65739;51.482;5.702;2023-05-14T13:52:25;4.78;;;2.50;;
76786;SDS011;65739;51.482;5.702;2023-05-14T13:54:56;3.08;;;2.58;;
76786;SDS011;65739;51.482;5.702;2023-05-14T13:57:36;2.50;;;2.13;;
76786;SDS011;65739;51.482;5.702;2023-05-14T14:00:05;5.93;;;2.30;;
76786;SDS011;65739;51.482;5.702;2023-05-14T14:02:31;2.72;;;2.42;;
76786;SDS011;65739;51.482;5.702;2023-05-14T14:04:57;7.88;;;2.58;;
76786;SDS011;65739;51.482;5.702;2023-05-14T14:07:22;3.58;;;2.40;;
76786;SDS011;65739;51.482;5.702;2023-05-14T14:09:50;5.30;;;2.80;;
76786;SDS011;65739;51.482;5.702;2023-05-14T14:12:16;2.80;;;2.50;;
76786;SDS011;65739;51.482;5.702;2023-05-14T14:14:41;9.55;;;2.70;;
76786;SDS011;65739;51.482;5.702;2023-05-14T14:17:07;6.07;;;2.90;;
76786;SDS011;65739;51.482;5.702;2023-05-14T14:19:32;6.35;;;2.53;;
76786;SDS011;65739;51.482;5.702;2023-05-14T14:21:58;5.30;;;2.58;;
76786;SDS011;65739;51.482;5.702;2023-05-14T14:24:26;3.70;;;2.53;;
76786;SDS011;65739;51.482;5.702;2023-05-14T14:26:51;3.63;;;2.80;;
76786;SDS011;65739;51.482;5.702;2023-05-14T14:29:17;2.55;;;2.35;;
76786;SDS011;65739;51.482;5.702;2023-05-14T14:31:44;4.95;;;2.30;;
76786;SDS011;65739;51.482;5.702;2023-05-14T14:34:10;3.60;;;2.10;;
76786;SDS011;65739;51.482;5.702;2023-05-14T14:36:35;5.20;;;2.70;;
76786;SDS011;65739;51.482;5.702;2023-05-14T14:39:01;6.82;;;2.72;;
76786;SDS011;65739;51.482;5.702;2023-05-14T14:41:29;4.25;;;2.47;;
76786;SDS011;65739;51.482;5.702;2023-05-14T14:43:54;4.32;;;2.58;;
76786;SDS011;65739;51.482;5.702;2023-05-14T14:46:22;3.88;;;2.60;;
76786;SDS011;65739;51.482;5.702;2023-05-14T14:48:47;5.18;;;2.65;;
76786;SDS011;65739;51.482;5.702;2023-05-14T14:51:15;5.22;;;3.50;;
76786;SDS011;65739;51.482;5.702;2023-05-14T14:53:43;4.18;;;2.55;;
76786;SDS011;65739;51.482;5.702;2023-05-14T14:56:16;6.57;;;2.95;;
76786;SDS011;65739;51.482;5.702;2023-05-14T14:58:41;5.28;;;2.78;;
76786;SDS011;65739;51.482;5.702;2023-05-14T15:01:07;5.75;;;2.55;;
76786;SDS011;65739;51.482;5.702;2023-05-14T15:03:33;7.00;;;2.75;;
76786;SDS011;65739;51.482;5.702;2023-05-14T15:06:00;3.10;;;2.67;;
76786;SDS011;65739;51.482;5.702;2023-05-14T15:08:26;7.88;;;2.65;;
76786;SDS011;65739;51.482;5.702;2023-05-14T15:10:55;5.05;;;3.10;;
76786;SDS011;65739;51.482;5.702;2023-05-14T15:13:25;5.82;;;2.60;;
76786;SDS011;65739;51.482;5.702;2023-05-14T15:15:53;2.95;;;2.50;;
76786;SDS011;65739;51.482;5.702;2023-05-14T15:18:30;2.78;;;2.50;;
76786;SDS011;65739;51.482;5.702;2023-05-14T15:21:15;3.25;;;2.55;;
76786;SDS011;65739;51.482;5.702;2023-05-14T15:23:44;4.72;;;2.63;;
76786;SDS011;65739;51.482;5.702;2023-05-14T15:26:40;5.10;;;2.53;;
76786;SDS011;65739;51.482;5.702;2023-05-14T15:29:20;3.13;;;2.47;;
76786;SDS011;65739;51.482;5.702;2023-05-14T15:32:00;3.10;;;2.45;;
76786;SDS011;65739;51.482;5.702;2023-05-14T15:37:46;3.75;;;2.50;;
76786;SDS011;65739;51.482;5.702;2023-05-14T15:40:25;5.63;;;2.67;;
76786;SDS011;65739;51.482;5.702;2023-05-14T15:43:08;7.95;;;3.40;;
76786;SDS011;65739;51.482;5.702;2023-05-14T15:46:15;5.97;;;2.40;;
76786;SDS011;65739;51.482;5.702;2023-05-14T15:52:24;4.82;;;2.50;;
76786;SDS011;65739;51.482;5.702;2023-05-14T15:55:30;3.25;;;2.42;;
76786;SDS011;65739;51.482;5.702;2023-05-14T15:58:26;9.07;;;2.65;;
76786;SDS011;65739;51.482;5.702;2023-05-14T16:01:29;6.80;;;2.60;;
76786;SDS011;65739;51.482;5.702;2023-05-14T16:04:00;5.10;;;2.50;;
76786;SDS011;65739;51.482;5.702;2023-05-14T16:06:50;3.80;;;2.40;;
76786;SDS011;65739;51.482;5.702;2023-05-14T16:09:16;4.60;;;2.60;;
76786;SDS011;65739;51.482;5.702;2023-05-14T16:11:57;3.63;;;2.40;;
76786;SDS011;65739;51.482;5.702;2023-05-14T16:14:46;4.28;;;2.72;;
76786;SDS011;65739;51.482;5.702;2023-05-14T16:17:25;4.13;;;2.95;;
76786;SDS011;65739;51.482;5.702;2023-05-14T16:23:12;5.13;;;2.72;;
76786;SDS011;65739;51.482;5.702;2023-05-14T16:26:11;3.90;;;2.55;;
76786;SDS011;65739;51.482;5.702;2023-05-14T16:29:24;6.07;;;3.03;;
76786;SDS011;65739;51.482;5.702;2023-05-14T16:32:01;4.72;;;3.75;;
76786;SDS011;65739;51.482;5.702;2023-05-14T16:34:31;4.10;;;3.15;;
76786;SDS011;65739;51.482;5.702;2023-05-14T16:37:02;6.40;;;3.17;;
76786;SDS011;65739;51.482;5.702;2023-05-14T16:39:52;5.78;;;2.85;;
76786;SDS011;65739;51.482;5.702;2023-05-14T16:43:03;6.85;;;2.78;;
76786;SDS011;65739;51.482;5.702;2023-05-14T16:46:11;7.15;;;3.17;;
76786;SDS011;65739;51.482;5.702;2023-05-14T16:52:10;9.50;;;3.55;;
76786;SDS011;65739;51.482;5.702;2023-05-14T16:54:56;6.55;;;2.90;;
76786;SDS011;65739;51.482;5.702;2023-05-14T17:04:00;5.15;;;3.60;;
76786;SDS011;65739;51.482;5.702;2023-05-14T17:06:56;7.35;;;3.85;;
76786;SDS011;65739;51.482;5.702;2023-05-14T17:16:13;8.75;;;3.70;;
76786;SDS011;65739;51.482;5.702;2023-05-14T17:22:00;6.65;;;3.95;;
76786;SDS011;65739;51.482;5.702;2023-05-14T17:27:57;7.22;;;3.80;;
76786;SDS011;65739;51.482;5.702;2023-05-14T17:30:48;6.32;;;3.83;;
76786;SDS011;65739;51.482;5.702;2023-05-14T17:36:45;10.30;;;3.90;;
76786;SDS011;65739;51.482;5.702;2023-05-14T17:39:23;4.22;;;3.58;;
76786;SDS011;65739;51.482;5.702;2023-05-14T17:41:49;6.60;;;3.60;;
76786;SDS011;65739;51.482;5.702;2023-05-14T17:44:16;6.50;;;3.70;;
76786;SDS011;65739;51.482;5.702;2023-05-14T17:46:44;8.27;;;4.13;;
76786;SDS011;65739;51.482;5.702;2023-05-14T17:49:10;9.93;;;3.83;;
76786;SDS011;65739;51.482;5.702;2023-05-14T17:51:35;8.48;;;4.50;;
76786;SDS011;65739;51.482;5.702;2023-05-14T17:54:03;7.30;;;3.75;;
76786;SDS011;65739;51.482;5.702;2023-05-14T17:56:31;5.22;;;3.92;;
76786;SDS011;65739;51.482;5.702;2023-05-14T17:58:57;7.95;;;4.57;;
76786;SDS011;65739;51.482;5.702;2023-05-14T18:01:22;8.50;;;4.65;;
76786;SDS011;65739;51.482;5.702;2023-05-14T18:03:48;10.25;;;4.72;;
76786;SDS011;65739;51.482;5.702;2023-05-14T18:06:13;10.23;;;3.95;;
76786;SDS011;65739;51.482;5.702;2023-05-14T18:08:39;5.97;;;4.05;;
76786;SDS011;65739;51.482;5.702;2023-05-14T18:11:07;8.90;;;3.90;;
76786;SDS011;65739;51.482;5.702;2023-05-14T18:13:32;12.82;;;4.28;;
76786;SDS011;65739;51.482;5.702;2023-05-14T18:15:58;8.98;;;4.88;;
76786;SDS011;65739;51.482;5.702;2023-05-14T18:18:24;12.30;;;4.32;;
76786;SDS011;65739;51.482;5.702;2023-05-14T18:20:50;12.40;;;5.60;;
76786;SDS011;65739;51.482;5.702;2023-05-14T18:23:16;8.38;;;5.63;;
76786;SDS011;65739;51.482;5.702;2023-05-14T18:25:42;11.95;;;5.95;;
76786;SDS011;65739;51.482;5.702;2023-05-14T18:28:15;11.85;;;6.10;;
76786;SDS011;65739;51.482;5.702;2023-05-14T18:31:03;10.25;;;6.13;;
76786;SDS011;65739;51.482;5.702;2023-05-14T18:33:34;8.15;;;5.93;;
76786;SDS011;65739;51.482;5.702;2023-05-14T18:36:00;16.30;;;7.22;;
76786;SDS011;65739;51.482;5.702;2023-05-14T18:38:27;10.93;;;7.25;;
76786;SDS011;65739;51.482;5.702;2023-05-14T18:40:55;12.15;;;8.02;;
76786;SDS011;65739;51.482;5.702;2023-05-14T18:43:23;17.67;;;9.18;;
76786;SDS011;65739;51.482;5.702;2023-05-14T18:49:44;14.65;;;8.63;;
76786;SDS011;65739;51.482;5.702;2023-05-14T18:52:29;15.10;;;9.80;;
76786;SDS011;65739;51.482;5.702;2023-05-14T18:55:26;19.27;;;10.07;;
76786;SDS011;65739;51.482;5.702;2023-05-14T18:58:28;16.40;;;9.63;;
76786;SDS011;65739;51.482;5.702;2023-05-14T19:01:35;16.67;;;10.50;;
76786;SDS011;65739;51.482;5.702;2023-05-14T19:04:29;21.00;;;10.25;;
76786;SDS011;65739;51.482;5.702;2023-05-14T19:07:11;17.83;;;9.70;;
76786;SDS011;65739;51.482;5.702;2023-05-14T19:10:06;18.35;;;9.77;;
76786;SDS011;65739;51.482;5.702;2023-05-14T19:13:05;20.13;;;10.15;;
76786;SDS011;65739;51.482;5.702;2023-05-14T19:25:45;18.75;;;10.02;;